Aviation Digital Data Service (ADDS)

Output produced by TAFs form (1047 UTC 31 August 2015)
found at http://aviationweather.gov/adds/tafs/
 
KAEG 310539Z 3106/0106 30007KT P6SM SCT110 SCT150 
     TEMPO 3106/3109 35011G19KT BKN100 
     FM312000 22009KT P6SM SCT090 SCT150 
     FM312300 24010KT P6SM VCSH SCT090 BKN120